sensor_id;sensor_type;location;lat;lon;timestamp;P1;durP1;ratioP1;P2;durP2;ratioP2
545;SDS011;259;53.304;9.816;2023-06-14T00:00:31;2.27;;;2.07;;
545;SDS011;259;53.304;9.816;2023-06-14T00:02:57;2.47;;;2.27;;
545;SDS011;259;53.304;9.816;2023-06-14T00:05:23;1.90;;;1.80;;
545;SDS011;259;53.304;9.816;2023-06-14T00:07:49;2.33;;;2.13;;
545;SDS011;259;53.304;9.816;2023-06-14T00:10:18;2.30;;;2.10;;
545;SDS011;259;53.304;9.816;2023-06-14T00:12:44;2.70;;;2.10;;
545;SDS011;259;53.304;9.816;2023-06-14T00:15:10;2.07;;;1.80;;
545;SDS011;259;53.304;9.816;2023-06-14T00:17:36;2.50;;;2.13;;
545;SDS011;259;53.304;9.816;2023-06-14T00:20:04;2.40;;;2.20;;
545;SDS011;259;53.304;9.816;2023-06-14T00:22:32;2.70;;;2.50;;
545;SDS011;259;53.304;9.816;2023-06-14T00:24:59;2.50;;;2.40;;
545;SDS011;259;53.304;9.816;2023-06-14T00:27:25;2.20;;;2.10;;
545;SDS011;259;53.304;9.816;2023-06-14T00:29:51;2.33;;;2.23;;
545;SDS011;259;53.304;9.816;2023-06-14T00:32:17;2.20;;;1.93;;
545;SDS011;259;53.304;9.816;2023-06-14T00:34:43;2.20;;;2.00;;
545;SDS011;259;53.304;9.816;2023-06-14T00:37:09;1.87;;;1.77;;
545;SDS011;259;53.304;9.816;2023-06-14T00:39:35;2.40;;;2.30;;
545;SDS011;259;53.304;9.816;2023-06-14T00:42:00;2.43;;;2.23;;
545;SDS011;259;53.304;9.816;2023-06-14T00:44:26;2.20;;;2.00;;
545;SDS011;259;53.304;9.816;2023-06-14T00:46:52;3.53;;;2.23;;
545;SDS011;259;53.304;9.816;2023-06-14T00:49:18;2.87;;;2.57;;
545;SDS011;259;53.304;9.816;2023-06-14T00:51:45;2.17;;;2.03;;
545;SDS011;259;53.304;9.816;2023-06-14T00:54:11;2.53;;;2.13;;
545;SDS011;259;53.304;9.816;2023-06-14T00:56:36;2.13;;;1.97;;
545;SDS011;259;53.304;9.816;2023-06-14T00:59:03;3.20;;;2.50;;
545;SDS011;259;53.304;9.816;2023-06-14T01:01:29;2.53;;;2.20;;
545;SDS011;259;53.304;9.816;2023-06-14T01:03:59;2.50;;;2.30;;
545;SDS011;259;53.304;9.816;2023-06-14T01:06:35;2.90;;;2.60;;
545;SDS011;259;53.304;9.816;2023-06-14T01:09:13;2.40;;;2.20;;
545;SDS011;259;53.304;9.816;2023-06-14T01:14:23;2.73;;;2.53;;
545;SDS011;259;53.304;9.816;2023-06-14T01:16:52;2.03;;;1.93;;
545;SDS011;259;53.304;9.816;2023-06-14T01:19:18;2.80;;;2.60;;
545;SDS011;259;53.304;9.816;2023-06-14T01:21:47;2.50;;;2.30;;
545;SDS011;259;53.304;9.816;2023-06-14T01:24:16;2.63;;;2.43;;
545;SDS011;259;53.304;9.816;2023-06-14T01:26:44;2.40;;;2.20;;
545;SDS011;259;53.304;9.816;2023-06-14T01:29:11;2.60;;;2.40;;
545;SDS011;259;53.304;9.816;2023-06-14T01:31:42;2.67;;;2.47;;
545;SDS011;259;53.304;9.816;2023-06-14T01:34:08;2.33;;;2.20;;
545;SDS011;259;53.304;9.816;2023-06-14T01:36:35;2.37;;;2.03;;
545;SDS011;259;53.304;9.816;2023-06-14T01:39:06;2.60;;;2.40;;
545;SDS011;259;53.304;9.816;2023-06-14T01:41:33;2.53;;;2.33;;
545;SDS011;259;53.304;9.816;2023-06-14T01:44:00;2.70;;;2.50;;
545;SDS011;259;53.304;9.816;2023-06-14T01:46:27;5.27;;;2.67;;
545;SDS011;259;53.304;9.816;2023-06-14T01:48:52;2.30;;;2.20;;
545;SDS011;259;53.304;9.816;2023-06-14T01:51:18;2.67;;;2.47;;
545;SDS011;259;53.304;9.816;2023-06-14T01:53:44;2.57;;;2.37;;
545;SDS011;259;53.304;9.816;2023-06-14T01:56:10;2.60;;;2.40;;
545;SDS011;259;53.304;9.816;2023-06-14T01:58:35;2.70;;;2.40;;
545;SDS011;259;53.304;9.816;2023-06-14T02:01:01;2.60;;;2.40;;
545;SDS011;259;53.304;9.816;2023-06-14T02:03:27;2.07;;;1.87;;
545;SDS011;259;53.304;9.816;2023-06-14T02:05:53;2.03;;;1.93;;
545;SDS011;259;53.304;9.816;2023-06-14T02:08:20;2.70;;;2.50;;
545;SDS011;259;53.304;9.816;2023-06-14T02:10:46;2.80;;;2.30;;
545;SDS011;259;53.304;9.816;2023-06-14T02:13:11;2.30;;;2.20;;
545;SDS011;259;53.304;9.816;2023-06-14T02:15:37;2.63;;;2.43;;
545;SDS011;259;53.304;9.816;2023-06-14T02:18:03;2.33;;;2.10;;
545;SDS011;259;53.304;9.816;2023-06-14T02:20:29;2.90;;;2.70;;
545;SDS011;259;53.304;9.816;2023-06-14T02:22:55;2.33;;;2.13;;
545;SDS011;259;53.304;9.816;2023-06-14T02:25:21;2.10;;;2.00;;
545;SDS011;259;53.304;9.816;2023-06-14T02:27:47;2.50;;;2.30;;
545;SDS011;259;53.304;9.816;2023-06-14T02:30:13;2.57;;;2.37;;
545;SDS011;259;53.304;9.816;2023-06-14T02:32:40;2.80;;;2.60;;
545;SDS011;259;53.304;9.816;2023-06-14T02:35:07;2.70;;;2.50;;
545;SDS011;259;53.304;9.816;2023-06-14T02:37:33;2.70;;;2.50;;
545;SDS011;259;53.304;9.816;2023-06-14T02:40:00;2.57;;;2.40;;
545;SDS011;259;53.304;9.816;2023-06-14T02:42:25;2.90;;;2.70;;
545;SDS011;259;53.304;9.816;2023-06-14T02:44:51;3.70;;;2.70;;
545;SDS011;259;53.304;9.816;2023-06-14T02:47:17;2.60;;;2.40;;
545;SDS011;259;53.304;9.816;2023-06-14T02:49:43;2.50;;;2.30;;
545;SDS011;259;53.304;9.816;2023-06-14T02:52:11;2.60;;;2.40;;
545;SDS011;259;53.304;9.816;2023-06-14T02:54:37;2.53;;;2.37;;
545;SDS011;259;53.304;9.816;2023-06-14T02:57:03;2.70;;;2.57;;
545;SDS011;259;53.304;9.816;2023-06-14T02:59:29;2.90;;;2.70;;
545;SDS011;259;53.304;9.816;2023-06-14T03:01:55;2.90;;;2.70;;
545;SDS011;259;53.304;9.816;2023-06-14T03:04:21;3.30;;;3.10;;
545;SDS011;259;53.304;9.816;2023-06-14T03:06:46;3.43;;;2.47;;
545;SDS011;259;53.304;9.816;2023-06-14T03:09:15;2.70;;;2.50;;
545;SDS011;259;53.304;9.816;2023-06-14T03:11:41;2.80;;;2.50;;
545;SDS011;259;53.304;9.816;2023-06-14T03:14:07;2.33;;;2.13;;
545;SDS011;259;53.304;9.816;2023-06-14T03:16:33;2.67;;;2.47;;
545;SDS011;259;53.304;9.816;2023-06-14T03:18:59;2.20;;;2.10;;
545;SDS011;259;53.304;9.816;2023-06-14T03:21:25;2.20;;;2.10;;
545;SDS011;259;53.304;9.816;2023-06-14T03:23:51;2.20;;;2.00;;
545;SDS011;259;53.304;9.816;2023-06-14T03:26:18;3.37;;;2.40;;
545;SDS011;259;53.304;9.816;2023-06-14T03:28:44;2.27;;;2.10;;
545;SDS011;259;53.304;9.816;2023-06-14T03:31:11;3.57;;;2.80;;
545;SDS011;259;53.304;9.816;2023-06-14T03:33:40;2.40;;;2.20;;
545;SDS011;259;53.304;9.816;2023-06-14T03:36:06;2.40;;;2.10;;
545;SDS011;259;53.304;9.816;2023-06-14T03:38:32;3.17;;;2.47;;
545;SDS011;259;53.304;9.816;2023-06-14T03:40:58;2.90;;;2.60;;
545;SDS011;259;53.304;9.816;2023-06-14T03:43:24;3.57;;;2.60;;
545;SDS011;259;53.304;9.816;2023-06-14T03:45:50;3.07;;;2.17;;
545;SDS011;259;53.304;9.816;2023-06-14T03:48:16;2.50;;;2.30;;
545;SDS011;259;53.304;9.816;2023-06-14T03:50:42;2.87;;;2.67;;
545;SDS011;259;53.304;9.816;2023-06-14T03:53:09;2.73;;;2.53;;
545;SDS011;259;53.304;9.816;2023-06-14T03:55:35;2.50;;;2.30;;
545;SDS011;259;53.304;9.816;2023-06-14T03:58:00;2.30;;;2.20;;
545;SDS011;259;53.304;9.816;2023-06-14T04:00:26;2.53;;;2.33;;
545;SDS011;259;53.304;9.816;2023-06-14T04:02:52;2.67;;;2.47;;
545;SDS011;259;53.304;9.816;2023-06-14T04:05:19;2.67;;;2.47;;
545;SDS011;259;53.304;9.816;2023-06-14T04:07:45;3.00;;;2.80;;
545;SDS011;259;53.304;9.816;2023-06-14T04:10:13;4.77;;;2.73;;
545;SDS011;259;53.304;9.816;2023-06-14T04:12:41;2.70;;;2.40;;
545;SDS011;259;53.304;9.816;2023-06-14T04:15:07;2.73;;;2.47;;
545;SDS011;259;53.304;9.816;2023-06-14T04:17:34;2.53;;;2.43;;
545;SDS011;259;53.304;9.816;2023-06-14T04:20:00;2.83;;;2.60;;
545;SDS011;259;53.304;9.816;2023-06-14T04:22:29;2.83;;;2.63;;
545;SDS011;259;53.304;9.816;2023-06-14T04:24:56;2.70;;;2.50;;
545;SDS011;259;53.304;9.816;2023-06-14T04:27:23;3.00;;;2.80;;
545;SDS011;259;53.304;9.816;2023-06-14T04:29:51;2.73;;;2.53;;
545;SDS011;259;53.304;9.816;2023-06-14T04:32:27;2.93;;;2.43;;
545;SDS011;259;53.304;9.816;2023-06-14T04:34:54;3.03;;;2.73;;
545;SDS011;259;53.304;9.816;2023-06-14T04:37:21;2.80;;;2.50;;
545;SDS011;259;53.304;9.816;2023-06-14T04:39:47;3.03;;;2.70;;
545;SDS011;259;53.304;9.816;2023-06-14T04:42:15;3.00;;;2.70;;
545;SDS011;259;53.304;9.816;2023-06-14T04:44:41;4.27;;;3.30;;
545;SDS011;259;53.304;9.816;2023-06-14T04:47:08;3.00;;;2.80;;
545;SDS011;259;53.304;9.816;2023-06-14T04:49:34;3.23;;;2.90;;
545;SDS011;259;53.304;9.816;2023-06-14T04:52:00;4.93;;;3.57;;
545;SDS011;259;53.304;9.816;2023-06-14T04:54:26;2.73;;;2.47;;
545;SDS011;259;53.304;9.816;2023-06-14T04:56:53;2.80;;;2.60;;
545;SDS011;259;53.304;9.816;2023-06-14T04:59:20;3.10;;;2.87;;
545;SDS011;259;53.304;9.816;2023-06-14T05:01:48;5.43;;;3.10;;
545;SDS011;259;53.304;9.816;2023-06-14T05:04:15;3.40;;;2.47;;
545;SDS011;259;53.304;9.816;2023-06-14T05:06:42;4.13;;;2.40;;
545;SDS011;259;53.304;9.816;2023-06-14T05:09:13;3.47;;;3.10;;
545;SDS011;259;53.304;9.816;2023-06-14T05:11:40;2.67;;;2.43;;
545;SDS011;259;53.304;9.816;2023-06-14T05:14:08;3.43;;;3.10;;
545;SDS011;259;53.304;9.816;2023-06-14T05:16:38;5.30;;;2.90;;
545;SDS011;259;53.304;9.816;2023-06-14T05:19:04;3.37;;;3.07;;
545;SDS011;259;53.304;9.816;2023-06-14T05:21:30;2.83;;;2.43;;
545;SDS011;259;53.304;9.816;2023-06-14T05:23:58;3.33;;;2.60;;
545;SDS011;259;53.304;9.816;2023-06-14T05:26:24;2.67;;;2.47;;
545;SDS011;259;53.304;9.816;2023-06-14T05:28:53;5.00;;;3.23;;
545;SDS011;259;53.304;9.816;2023-06-14T05:31:23;5.23;;;3.33;;
545;SDS011;259;53.304;9.816;2023-06-14T05:33:52;2.87;;;2.67;;
545;SDS011;259;53.304;9.816;2023-06-14T05:36:19;2.57;;;2.37;;
545;SDS011;259;53.304;9.816;2023-06-14T05:38:49;3.10;;;2.80;;
545;SDS011;259;53.304;9.816;2023-06-14T05:41:15;4.40;;;2.87;;
545;SDS011;259;53.304;9.816;2023-06-14T05:43:41;3.73;;;3.00;;
545;SDS011;259;53.304;9.816;2023-06-14T05:46:07;2.90;;;2.70;;
545;SDS011;259;53.304;9.816;2023-06-14T05:48:33;3.33;;;2.83;;
545;SDS011;259;53.304;9.816;2023-06-14T05:50:58;3.90;;;3.13;;
545;SDS011;259;53.304;9.816;2023-06-14T05:53:24;3.30;;;3.07;;
545;SDS011;259;53.304;9.816;2023-06-14T05:55:50;3.33;;;3.03;;
545;SDS011;259;53.304;9.816;2023-06-14T05:58:20;3.97;;;3.20;;
545;SDS011;259;53.304;9.816;2023-06-14T06:00:46;3.47;;;3.17;;
545;SDS011;259;53.304;9.816;2023-06-14T06:03:12;3.97;;;3.67;;
545;SDS011;259;53.304;9.816;2023-06-14T06:05:38;3.43;;;3.23;;
545;SDS011;259;53.304;9.816;2023-06-14T06:08:04;3.60;;;3.30;;
545;SDS011;259;53.304;9.816;2023-06-14T06:10:30;3.50;;;3.20;;
545;SDS011;259;53.304;9.816;2023-06-14T06:12:56;7.13;;;3.57;;
545;SDS011;259;53.304;9.816;2023-06-14T06:15:21;8.00;;;3.30;;
545;SDS011;259;53.304;9.816;2023-06-14T06:17:47;3.37;;;3.07;;
545;SDS011;259;53.304;9.816;2023-06-14T06:20:13;3.80;;;3.40;;
545;SDS011;259;53.304;9.816;2023-06-14T06:22:39;3.23;;;2.93;;
545;SDS011;259;53.304;9.816;2023-06-14T06:25:04;5.70;;;3.47;;
545;SDS011;259;53.304;9.816;2023-06-14T06:27:31;3.93;;;2.90;;
545;SDS011;259;53.304;9.816;2023-06-14T06:29:57;4.13;;;3.27;;
545;SDS011;259;53.304;9.816;2023-06-14T06:32:23;4.50;;;4.10;;
545;SDS011;259;53.304;9.816;2023-06-14T06:34:49;3.40;;;3.20;;
545;SDS011;259;53.304;9.816;2023-06-14T06:37:15;3.03;;;2.83;;
545;SDS011;259;53.304;9.816;2023-06-14T06:39:40;3.47;;;3.27;;
545;SDS011;259;53.304;9.816;2023-06-14T06:42:06;2.90;;;2.63;;
545;SDS011;259;53.304;9.816;2023-06-14T06:44:32;2.93;;;2.73;;
545;SDS011;259;53.304;9.816;2023-06-14T06:46:58;3.20;;;3.00;;
545;SDS011;259;53.304;9.816;2023-06-14T06:49:23;4.67;;;3.30;;
545;SDS011;259;53.304;9.816;2023-06-14T06:51:59;3.10;;;2.87;;
545;SDS011;259;53.304;9.816;2023-06-14T06:54:27;3.40;;;3.10;;
545;SDS011;259;53.304;9.816;2023-06-14T06:56:52;3.37;;;2.97;;
545;SDS011;259;53.304;9.816;2023-06-14T06:59:18;3.23;;;2.90;;
545;SDS011;259;53.304;9.816;2023-06-14T07:01:44;4.30;;;3.57;;
545;SDS011;259;53.304;9.816;2023-06-14T07:04:10;3.57;;;3.27;;
545;SDS011;259;53.304;9.816;2023-06-14T07:06:35;3.50;;;3.20;;
545;SDS011;259;53.304;9.816;2023-06-14T07:09:02;5.20;;;2.93;;
545;SDS011;259;53.304;9.816;2023-06-14T07:11:29;3.77;;;3.13;;
545;SDS011;259;53.304;9.816;2023-06-14T07:13:55;3.27;;;3.07;;
545;SDS011;259;53.304;9.816;2023-06-14T07:16:21;3.20;;;3.00;;
545;SDS011;259;53.304;9.816;2023-06-14T07:18:47;4.67;;;3.40;;
545;SDS011;259;53.304;9.816;2023-06-14T07:21:13;3.10;;;2.90;;
545;SDS011;259;53.304;9.816;2023-06-14T07:23:38;2.53;;;2.33;;
545;SDS011;259;53.304;9.816;2023-06-14T07:26:04;3.30;;;3.00;;
545;SDS011;259;53.304;9.816;2023-06-14T07:28:30;3.43;;;2.90;;
545;SDS011;259;53.304;9.816;2023-06-14T07:30:55;2.93;;;2.73;;
545;SDS011;259;53.304;9.816;2023-06-14T07:33:21;3.63;;;3.33;;
545;SDS011;259;53.304;9.816;2023-06-14T07:35:47;2.93;;;2.83;;
545;SDS011;259;53.304;9.816;2023-06-14T07:38:14;3.00;;;2.70;;
545;SDS011;259;53.304;9.816;2023-06-14T07:40:40;3.10;;;2.90;;
545;SDS011;259;53.304;9.816;2023-06-14T07:43:05;2.73;;;2.60;;
545;SDS011;259;53.304;9.816;2023-06-14T07:45:31;3.10;;;2.83;;
545;SDS011;259;53.304;9.816;2023-06-14T07:47:57;3.80;;;3.50;;
545;SDS011;259;53.304;9.816;2023-06-14T07:50:22;2.97;;;2.67;;
545;SDS011;259;53.304;9.816;2023-06-14T07:52:48;3.17;;;2.87;;
545;SDS011;259;53.304;9.816;2023-06-14T07:55:14;3.37;;;3.07;;
545;SDS011;259;53.304;9.816;2023-06-14T07:57:40;3.50;;;3.30;;
545;SDS011;259;53.304;9.816;2023-06-14T08:00:06;2.80;;;2.60;;
545;SDS011;259;53.304;9.816;2023-06-14T08:02:32;3.03;;;2.83;;
545;SDS011;259;53.304;9.816;2023-06-14T08:04:58;3.13;;;2.93;;
545;SDS011;259;53.304;9.816;2023-06-14T08:07:24;3.43;;;3.17;;
545;SDS011;259;53.304;9.816;2023-06-14T08:09:50;3.23;;;3.03;;
545;SDS011;259;53.304;9.816;2023-06-14T08:12:16;2.90;;;2.70;;
545;SDS011;259;53.304;9.816;2023-06-14T08:14:41;3.30;;;3.10;;
545;SDS011;259;53.304;9.816;2023-06-14T08:17:08;3.13;;;2.83;;
545;SDS011;259;53.304;9.816;2023-06-14T08:19:33;3.90;;;3.60;;
545;SDS011;259;53.304;9.816;2023-06-14T08:21:59;3.57;;;3.27;;
545;SDS011;259;53.304;9.816;2023-06-14T08:24:25;3.40;;;3.20;;
545;SDS011;259;53.304;9.816;2023-06-14T08:26:54;3.40;;;3.10;;
545;SDS011;259;53.304;9.816;2023-06-14T08:29:21;2.93;;;2.73;;
545;SDS011;259;53.304;9.816;2023-06-14T08:31:47;3.00;;;2.80;;
545;SDS011;259;53.304;9.816;2023-06-14T08:34:13;3.20;;;2.90;;
545;SDS011;259;53.304;9.816;2023-06-14T08:36:38;2.90;;;2.70;;
545;SDS011;259;53.304;9.816;2023-06-14T08:39:04;2.90;;;2.70;;
545;SDS011;259;53.304;9.816;2023-06-14T08:41:30;3.20;;;3.00;;
545;SDS011;259;53.304;9.816;2023-06-14T08:43:57;3.20;;;2.90;;
545;SDS011;259;53.304;9.816;2023-06-14T08:46:25;4.17;;;3.30;;
545;SDS011;259;53.304;9.816;2023-06-14T08:48:52;3.43;;;3.03;;
545;SDS011;259;53.304;9.816;2023-06-14T08:51:24;3.13;;;2.93;;
545;SDS011;259;53.304;9.816;2023-06-14T08:53:52;6.20;;;3.30;;
545;SDS011;259;53.304;9.816;2023-06-14T08:56:25;5.83;;;3.63;;
545;SDS011;259;53.304;9.816;2023-06-14T08:58:53;5.63;;;3.40;;
545;SDS011;259;53.304;9.816;2023-06-14T09:01:19;4.40;;;2.97;;
545;SDS011;259;53.304;9.816;2023-06-14T09:03:47;5.10;;;3.00;;
545;SDS011;259;53.304;9.816;2023-06-14T09:06:15;10.57;;;3.87;;
545;SDS011;259;53.304;9.816;2023-06-14T09:08:45;3.57;;;3.27;;
545;SDS011;259;53.304;9.816;2023-06-14T09:11:12;5.63;;;2.80;;
545;SDS011;259;53.304;9.816;2023-06-14T09:13:39;5.80;;;3.80;;
545;SDS011;259;53.304;9.816;2023-06-14T09:16:06;5.23;;;3.33;;
545;SDS011;259;53.304;9.816;2023-06-14T09:18:34;4.63;;;3.50;;
545;SDS011;259;53.304;9.816;2023-06-14T09:21:07;3.33;;;3.00;;
545;SDS011;259;53.304;9.816;2023-06-14T09:23:36;3.40;;;3.13;;
545;SDS011;259;53.304;9.816;2023-06-14T09:26:08;3.87;;;3.00;;
545;SDS011;259;53.304;9.816;2023-06-14T09:28:41;3.23;;;2.93;;
545;SDS011;259;53.304;9.816;2023-06-14T09:31:09;4.97;;;3.60;;
545;SDS011;259;53.304;9.816;2023-06-14T09:33:36;4.57;;;3.40;;
545;SDS011;259;53.304;9.816;2023-06-14T09:36:03;4.17;;;3.87;;
545;SDS011;259;53.304;9.816;2023-06-14T09:38:30;3.30;;;3.07;;
545;SDS011;259;53.304;9.816;2023-06-14T09:40:57;4.30;;;3.70;;
545;SDS011;259;53.304;9.816;2023-06-14T09:43:23;4.77;;;3.40;;
545;SDS011;259;53.304;9.816;2023-06-14T09:45:52;3.60;;;3.20;;
545;SDS011;259;53.304;9.816;2023-06-14T09:48:19;3.60;;;3.30;;
545;SDS011;259;53.304;9.816;2023-06-14T09:50:45;3.50;;;3.20;;
545;SDS011;259;53.304;9.816;2023-06-14T09:53:14;3.33;;;3.03;;
545;SDS011;259;53.304;9.816;2023-06-14T09:55:46;3.50;;;3.20;;
545;SDS011;259;53.304;9.816;2023-06-14T09:58:14;3.43;;;3.10;;
545;SDS011;259;53.304;9.816;2023-06-14T10:00:42;3.80;;;3.47;;
545;SDS011;259;53.304;9.816;2023-06-14T10:03:13;3.97;;;3.20;;
545;SDS011;259;53.304;9.816;2023-06-14T10:05:45;3.53;;;3.27;;
545;SDS011;259;53.304;9.816;2023-06-14T10:08:13;4.27;;;3.77;;
545;SDS011;259;53.304;9.816;2023-06-14T10:10:42;3.30;;;3.10;;
545;SDS011;259;53.304;9.816;2023-06-14T10:13:09;3.00;;;2.80;;
545;SDS011;259;53.304;9.816;2023-06-14T10:15:48;3.40;;;3.20;;
545;SDS011;259;53.304;9.816;2023-06-14T10:18:24;3.20;;;3.00;;
545;SDS011;259;53.304;9.816;2023-06-14T10:23:47;3.27;;;2.97;;
545;SDS011;259;53.304;9.816;2023-06-14T10:26:21;3.47;;;3.27;;
545;SDS011;259;53.304;9.816;2023-06-14T10:28:55;3.70;;;3.40;;
545;SDS011;259;53.304;9.816;2023-06-14T10:31:45;2.80;;;2.60;;
545;SDS011;259;53.304;9.816;2023-06-14T10:34:28;4.00;;;3.10;;
545;SDS011;259;53.304;9.816;2023-06-14T10:39:39;2.60;;;2.40;;
545;SDS011;259;53.304;9.816;2023-06-14T10:42:07;4.53;;;3.00;;
545;SDS011;259;53.304;9.816;2023-06-14T10:44:33;3.40;;;3.10;;
545;SDS011;259;53.304;9.816;2023-06-14T10:47:04;5.10;;;3.80;;
545;SDS011;259;53.304;9.816;2023-06-14T10:49:41;3.70;;;3.40;;
545;SDS011;259;53.304;9.816;2023-06-14T10:52:10;3.90;;;3.50;;
545;SDS011;259;53.304;9.816;2023-06-14T10:55:05;3.10;;;2.90;;
545;SDS011;259;53.304;9.816;2023-06-14T11:00:11;3.00;;;2.80;;
545;SDS011;259;53.304;9.816;2023-06-14T11:05:58;3.47;;;3.27;;
545;SDS011;259;53.304;9.816;2023-06-14T11:08:45;3.40;;;3.00;;
545;SDS011;259;53.304;9.816;2023-06-14T11:11:47;3.93;;;3.63;;
545;SDS011;259;53.304;9.816;2023-06-14T11:14:14;4.03;;;3.00;;
545;SDS011;259;53.304;9.816;2023-06-14T11:16:40;3.30;;;3.10;;
545;SDS011;259;53.304;9.816;2023-06-14T11:19:05;3.77;;;3.37;;
545;SDS011;259;53.304;9.816;2023-06-14T11:21:32;3.23;;;3.03;;
545;SDS011;259;53.304;9.816;2023-06-14T11:23:58;3.70;;;3.17;;
545;SDS011;259;53.304;9.816;2023-06-14T11:26:27;3.53;;;3.33;;
545;SDS011;259;53.304;9.816;2023-06-14T11:28:59;3.43;;;2.83;;
545;SDS011;259;53.304;9.816;2023-06-14T11:31:27;2.90;;;2.63;;
545;SDS011;259;53.304;9.816;2023-06-14T11:33:54;3.90;;;3.60;;
545;SDS011;259;53.304;9.816;2023-06-14T11:36:21;3.17;;;2.97;;
545;SDS011;259;53.304;9.816;2023-06-14T11:38:48;3.73;;;3.43;;
545;SDS011;259;53.304;9.816;2023-06-14T11:41:14;3.60;;;3.30;;
545;SDS011;259;53.304;9.816;2023-06-14T11:43:40;3.53;;;3.33;;
545;SDS011;259;53.304;9.816;2023-06-14T11:46:12;3.40;;;3.10;;
545;SDS011;259;53.304;9.816;2023-06-14T11:48:42;3.00;;;2.80;;
545;SDS011;259;53.304;9.816;2023-06-14T11:51:08;3.40;;;3.20;;
545;SDS011;259;53.304;9.816;2023-06-14T11:53:34;3.30;;;3.10;;
545;SDS011;259;53.304;9.816;2023-06-14T11:56:00;3.07;;;2.87;;
545;SDS011;259;53.304;9.816;2023-06-14T11:58:26;3.60;;;3.40;;
545;SDS011;259;53.304;9.816;2023-06-14T12:00:54;4.00;;;3.70;;
545;SDS011;259;53.304;9.816;2023-06-14T12:03:23;3.27;;;3.07;;
545;SDS011;259;53.304;9.816;2023-06-14T12:05:50;3.80;;;3.50;;
545;SDS011;259;53.304;9.816;2023-06-14T12:08:32;3.60;;;3.30;;
545;SDS011;259;53.304;9.816;2023-06-14T12:11:05;3.47;;;3.00;;
545;SDS011;259;53.304;9.816;2023-06-14T12:13:37;4.57;;;3.20;;
545;SDS011;259;53.304;9.816;2023-06-14T12:16:04;3.40;;;3.10;;
545;SDS011;259;53.304;9.816;2023-06-14T12:18:36;3.37;;;3.10;;
545;SDS011;259;53.304;9.816;2023-06-14T12:21:05;3.40;;;3.20;;
545;SDS011;259;53.304;9.816;2023-06-14T12:23:48;4.60;;;3.83;;
545;SDS011;259;53.304;9.816;2023-06-14T12:26:15;3.30;;;3.10;;
545;SDS011;259;53.304;9.816;2023-06-14T12:28:43;3.50;;;3.20;;
545;SDS011;259;53.304;9.816;2023-06-14T12:31:11;4.83;;;3.37;;
545;SDS011;259;53.304;9.816;2023-06-14T12:33:39;4.50;;;3.13;;
545;SDS011;259;53.304;9.816;2023-06-14T12:36:09;3.30;;;3.00;;
545;SDS011;259;53.304;9.816;2023-06-14T12:38:35;3.77;;;3.47;;
545;SDS011;259;53.304;9.816;2023-06-14T12:41:02;3.40;;;3.10;;
545;SDS011;259;53.304;9.816;2023-06-14T12:43:28;4.17;;;3.80;;
545;SDS011;259;53.304;9.816;2023-06-14T12:45:54;3.77;;;3.57;;
545;SDS011;259;53.304;9.816;2023-06-14T12:48:20;3.67;;;3.33;;
545;SDS011;259;53.304;9.816;2023-06-14T12:50:46;4.20;;;3.90;;
545;SDS011;259;53.304;9.816;2023-06-14T12:53:12;3.63;;;3.43;;
545;SDS011;259;53.304;9.816;2023-06-14T12:55:38;4.67;;;3.37;;
545;SDS011;259;53.304;9.816;2023-06-14T12:58:04;8.70;;;3.87;;
545;SDS011;259;53.304;9.816;2023-06-14T13:00:30;9.83;;;3.97;;
545;SDS011;259;53.304;9.816;2023-06-14T13:02:56;6.37;;;3.30;;
545;SDS011;259;53.304;9.816;2023-06-14T13:05:22;5.30;;;4.33;;
545;SDS011;259;53.304;9.816;2023-06-14T13:07:48;7.77;;;3.90;;
545;SDS011;259;53.304;9.816;2023-06-14T13:10:15;4.20;;;3.20;;
545;SDS011;259;53.304;9.816;2023-06-14T13:12:42;7.77;;;3.27;;
545;SDS011;259;53.304;9.816;2023-06-14T13:15:07;4.43;;;4.03;;
545;SDS011;259;53.304;9.816;2023-06-14T13:17:34;8.20;;;3.80;;
545;SDS011;259;53.304;9.816;2023-06-14T13:20:06;4.13;;;3.47;;
545;SDS011;259;53.304;9.816;2023-06-14T13:22:33;4.20;;;3.80;;
545;SDS011;259;53.304;9.816;2023-06-14T13:25:00;6.67;;;3.47;;
545;SDS011;259;53.304;9.816;2023-06-14T13:27:27;5.00;;;4.50;;
545;SDS011;259;53.304;9.816;2023-06-14T13:29:53;4.17;;;3.73;;
545;SDS011;259;53.304;9.816;2023-06-14T13:32:20;5.10;;;4.00;;
545;SDS011;259;53.304;9.816;2023-06-14T13:34:47;9.67;;;4.40;;
545;SDS011;259;53.304;9.816;2023-06-14T13:37:13;9.80;;;3.87;;
545;SDS011;259;53.304;9.816;2023-06-14T13:39:39;10.23;;;4.13;;
545;SDS011;259;53.304;9.816;2023-06-14T13:42:05;6.27;;;3.90;;
545;SDS011;259;53.304;9.816;2023-06-14T13:44:31;11.43;;;4.27;;
545;SDS011;259;53.304;9.816;2023-06-14T13:46:57;5.35;;;3.50;;
545;SDS011;259;53.304;9.816;2023-06-14T13:49:23;6.43;;;3.60;;
545;SDS011;259;53.304;9.816;2023-06-14T13:51:48;7.40;;;3.23;;
545;SDS011;259;53.304;9.816;2023-06-14T13:54:14;7.60;;;4.67;;
545;SDS011;259;53.304;9.816;2023-06-14T13:56:40;8.40;;;4.40;;
545;SDS011;259;53.304;9.816;2023-06-14T13:59:06;10.67;;;4.10;;
545;SDS011;259;53.304;9.816;2023-06-14T14:01:32;6.97;;;4.23;;
545;SDS011;259;53.304;9.816;2023-06-14T14:03:58;6.97;;;3.93;;
545;SDS011;259;53.304;9.816;2023-06-14T14:06:25;9.10;;;4.07;;
545;SDS011;259;53.304;9.816;2023-06-14T14:08:51;8.97;;;3.47;;
545;SDS011;259;53.304;9.816;2023-06-14T14:11:17;6.63;;;3.83;;
545;SDS011;259;53.304;9.816;2023-06-14T14:13:44;5.60;;;3.20;;
545;SDS011;259;53.304;9.816;2023-06-14T14:16:10;4.00;;;3.67;;
545;SDS011;259;53.304;9.816;2023-06-14T14:18:36;3.93;;;3.37;;
545;SDS011;259;53.304;9.816;2023-06-14T14:21:02;5.87;;;3.47;;
545;SDS011;259;53.304;9.816;2023-06-14T14:23:28;9.10;;;3.90;;
545;SDS011;259;53.304;9.816;2023-06-14T14:25:54;4.07;;;3.67;;
545;SDS011;259;53.304;9.816;2023-06-14T14:28:20;7.80;;;3.43;;
545;SDS011;259;53.304;9.816;2023-06-14T14:30:46;4.83;;;3.93;;
545;SDS011;259;53.304;9.816;2023-06-14T14:33:15;4.10;;;3.57;;
545;SDS011;259;53.304;9.816;2023-06-14T14:35:43;5.93;;;3.57;;
545;SDS011;259;53.304;9.816;2023-06-14T14:38:13;3.67;;;3.37;;
545;SDS011;259;53.304;9.816;2023-06-14T14:40:40;5.70;;;3.33;;
545;SDS011;259;53.304;9.816;2023-06-14T14:43:07;4.63;;;3.27;;
545;SDS011;259;53.304;9.816;2023-06-14T14:45:32;6.57;;;3.50;;
545;SDS011;259;53.304;9.816;2023-06-14T14:47:59;3.73;;;3.43;;
545;SDS011;259;53.304;9.816;2023-06-14T14:50:26;4.67;;;4.00;;
545;SDS011;259;53.304;9.816;2023-06-14T14:52:52;4.63;;;3.60;;
545;SDS011;259;53.304;9.816;2023-06-14T14:55:18;3.40;;;3.20;;
545;SDS011;259;53.304;9.816;2023-06-14T14:57:45;4.43;;;3.17;;
545;SDS011;259;53.304;9.816;2023-06-14T15:00:12;5.00;;;2.93;;
545;SDS011;259;53.304;9.816;2023-06-14T15:02:38;4.43;;;3.20;;
545;SDS011;259;53.304;9.816;2023-06-14T15:05:03;4.97;;;3.27;;
545;SDS011;259;53.304;9.816;2023-06-14T15:07:30;3.83;;;3.53;;
545;SDS011;259;53.304;9.816;2023-06-14T15:09:56;4.33;;;3.37;;
545;SDS011;259;53.304;9.816;2023-06-14T15:12:22;3.80;;;3.50;;
545;SDS011;259;53.304;9.816;2023-06-14T15:14:52;4.30;;;3.27;;
545;SDS011;259;53.304;9.816;2023-06-14T15:17:18;3.50;;;3.20;;
545;SDS011;259;53.304;9.816;2023-06-14T15:19:47;3.60;;;3.40;;
545;SDS011;259;53.304;9.816;2023-06-14T15:22:14;4.57;;;3.43;;
545;SDS011;259;53.304;9.816;2023-06-14T15:24:40;4.07;;;3.50;;
545;SDS011;259;53.304;9.816;2023-06-14T15:27:07;3.77;;;3.43;;
545;SDS011;259;53.304;9.816;2023-06-14T15:29:33;4.80;;;3.17;;
545;SDS011;259;53.304;9.816;2023-06-14T15:32:02;3.87;;;3.57;;
545;SDS011;259;53.304;9.816;2023-06-14T15:34:30;4.17;;;3.50;;
545;SDS011;259;53.304;9.816;2023-06-14T15:36:56;3.30;;;3.00;;
545;SDS011;259;53.304;9.816;2023-06-14T15:39:22;3.00;;;2.80;;
545;SDS011;259;53.304;9.816;2023-06-14T15:41:49;4.80;;;2.57;;
545;SDS011;259;53.304;9.816;2023-06-14T15:44:16;10.70;;;4.10;;
545;SDS011;259;53.304;9.816;2023-06-14T15:46:42;18.70;;;4.47;;
545;SDS011;259;53.304;9.816;2023-06-14T15:49:11;13.67;;;4.10;;
545;SDS011;259;53.304;9.816;2023-06-14T15:51:38;15.20;;;4.53;;
545;SDS011;259;53.304;9.816;2023-06-14T15:54:06;9.93;;;4.67;;
545;SDS011;259;53.304;9.816;2023-06-14T15:56:32;29.40;;;5.83;;
545;SDS011;259;53.304;9.816;2023-06-14T15:58:58;11.67;;;4.87;;